sensor_id;sensor_type;location;lat;lon;timestamp;pressure;altitude;pressure_sealevel;temperature;humidity
69980;BME280;57318;56.232;43.944;2022-09-09T00:02:23;99428.78;;;6.14;79.98
69980;BME280;57318;56.232;43.944;2022-09-09T00:04:58;99426.22;;;6.12;79.80
69980;BME280;57318;56.232;43.944;2022-09-09T00:07:41;99433.22;;;6.13;79.78
69980;BME280;57318;56.232;43.944;2022-09-09T00:10:34;99431.31;;;6.16;79.56
69980;BME280;57318;56.232;43.944;2022-09-09T00:13:29;99441.22;;;6.12;79.53
69980;BME280;57318;56.232;43.944;2022-09-09T00:16:07;99446.50;;;6.12;79.52
69980;BME280;57318;56.232;43.944;2022-09-09T00:19:30;99440.75;;;6.05;80.23
69980;BME280;57318;56.232;43.944;2022-09-09T00:22:20;99446.22;;;6.02;80.01
69980;BME280;57318;56.232;43.944;2022-09-09T00:24:55;99451.50;;;6.02;79.77
69980;BME280;57318;56.232;43.944;2022-09-09T00:27:34;99447.34;;;5.98;79.69
69980;BME280;57318;56.232;43.944;2022-09-09T00:30:18;99446.66;;;5.94;79.79
69980;BME280;57318;56.232;43.944;2022-09-09T00:32:49;99452.31;;;5.88;80.50
69980;BME280;57318;56.232;43.944;2022-09-09T00:35:22;99450.69;;;5.86;80.13
69980;BME280;57318;56.232;43.944;2022-09-09T00:37:53;99458.69;;;5.84;80.01
69980;BME280;57318;56.232;43.944;2022-09-09T00:40:27;99458.22;;;5.77;80.37
69980;BME280;57318;56.232;43.944;2022-09-09T00:43:12;99458.69;;;5.84;79.90
69980;BME280;57318;56.232;43.944;2022-09-09T00:48:11;99456.97;;;5.83;80.06
69980;BME280;57318;56.232;43.944;2022-09-09T00:51:20;99460.94;;;5.76;80.30
69980;BME280;57318;56.232;43.944;2022-09-09T00:56:37;99467.25;;;5.73;80.45
69980;BME280;57318;56.232;43.944;2022-09-09T00:59:22;99470.47;;;5.78;80.51
69980;BME280;57318;56.232;43.944;2022-09-09T01:01:51;99471.31;;;5.79;80.47
69980;BME280;57318;56.232;43.944;2022-09-09T01:04:26;99474.59;;;5.83;80.15
69980;BME280;57318;56.232;43.944;2022-09-09T01:07:03;99478.19;;;5.82;79.83
69980;BME280;57318;56.232;43.944;2022-09-09T01:12:38;99476.41;;;5.82;79.71
69980;BME280;57318;56.232;43.944;2022-09-09T01:15:10;99482.41;;;5.84;79.62
69980;BME280;57318;56.232;43.944;2022-09-09T01:18:08;99482.69;;;5.79;79.74
69980;BME280;57318;56.232;43.944;2022-09-09T01:28:52;99488.50;;;5.70;79.63
69980;BME280;57318;56.232;43.944;2022-09-09T01:31:34;99493.03;;;5.68;79.88
69980;BME280;57318;56.232;43.944;2022-09-09T01:34:01;99487.38;;;5.60;80.32
69980;BME280;57318;56.232;43.944;2022-09-09T01:36:43;99498.75;;;5.60;80.24
69980;BME280;57318;56.232;43.944;2022-09-09T01:39:11;99495.09;;;5.63;80.00
69980;BME280;57318;56.232;43.944;2022-09-09T01:41:38;99492.47;;;5.63;80.02
69980;BME280;57318;56.232;43.944;2022-09-09T01:44:03;99498.56;;;5.64;80.17
69980;BME280;57318;56.232;43.944;2022-09-09T01:46:30;99503.84;;;5.64;80.26
69980;BME280;57318;56.232;43.944;2022-09-09T01:48:56;99500.56;;;5.60;80.41
69980;BME280;57318;56.232;43.944;2022-09-09T01:51:22;99507.59;;;5.59;80.41
69980;BME280;57318;56.232;43.944;2022-09-09T01:53:49;99504.22;;;5.57;80.34
69980;BME280;57318;56.232;43.944;2022-09-09T02:07:09;99513.91;;;5.57;79.89
69980;BME280;57318;56.232;43.944;2022-09-09T02:09:38;99513.91;;;5.57;80.06
69980;BME280;57318;56.232;43.944;2022-09-09T02:12:11;99517.47;;;5.56;80.45
69980;BME280;57318;56.232;43.944;2022-09-09T02:14:46;99521.03;;;5.55;80.51
69980;BME280;57318;56.232;43.944;2022-09-09T02:17:19;99517.38;;;5.57;80.36
69980;BME280;57318;56.232;43.944;2022-09-09T02:19:50;99521.72;;;5.58;80.41
69980;BME280;57318;56.232;43.944;2022-09-09T02:22:19;99529.53;;;5.60;80.30
69980;BME280;57318;56.232;43.944;2022-09-09T02:24:49;99532.94;;;5.62;79.99
69980;BME280;57318;56.232;43.944;2022-09-09T02:27:18;99527.84;;;5.59;79.89
69980;BME280;57318;56.232;43.944;2022-09-09T02:29:44;99533.78;;;5.63;79.96
69980;BME280;57318;56.232;43.944;2022-09-09T02:32:17;99538.22;;;5.62;79.78
69980;BME280;57318;56.232;43.944;2022-09-09T02:34:51;99545.94;;;5.65;79.55
69980;BME280;57318;56.232;43.944;2022-09-09T02:37:21;99548.41;;;5.68;79.52
69980;BME280;57318;56.232;43.944;2022-09-09T02:39:50;99543.78;;;5.72;79.48
69980;BME280;57318;56.232;43.944;2022-09-09T02:42:16;99548.69;;;5.78;79.01
69980;BME280;57318;56.232;43.944;2022-09-09T02:44:42;99552.13;;;5.80;78.68
69980;BME280;57318;56.232;43.944;2022-09-09T02:50:34;99563.53;;;5.95;78.13
69980;BME280;57318;56.232;43.944;2022-09-09T02:56:21;99566.03;;;5.98;77.72
69980;BME280;57318;56.232;43.944;2022-09-09T02:58:50;99571.88;;;6.03;77.52
69980;BME280;57318;56.232;43.944;2022-09-09T03:01:17;99563.78;;;6.06;77.34
69980;BME280;57318;56.232;43.944;2022-09-09T03:03:43;99578.53;;;5.94;76.92
69980;BME280;57318;56.232;43.944;2022-09-09T03:06:10;99579.78;;;6.03;77.19
69980;BME280;57318;56.232;43.944;2022-09-09T03:08:37;99583.13;;;6.07;77.11
69980;BME280;57318;56.232;43.944;2022-09-09T03:11:03;99577.53;;;6.11;76.69
69980;BME280;57318;56.232;43.944;2022-09-09T03:13:29;99578.53;;;6.25;76.53
69980;BME280;57318;56.232;43.944;2022-09-09T03:15:55;99586.34;;;6.26;76.10
69980;BME280;57318;56.232;43.944;2022-09-09T03:18:20;99583.88;;;6.23;76.13
69980;BME280;57318;56.232;43.944;2022-09-09T03:20:46;99586.63;;;6.22;76.01
69980;BME280;57318;56.232;43.944;2022-09-09T03:23:14;99592.66;;;6.24;75.35
69980;BME280;57318;56.232;43.944;2022-09-09T03:25:46;99597.25;;;6.20;75.86
69980;BME280;57318;56.232;43.944;2022-09-09T03:28:12;99597.84;;;6.25;75.96
69980;BME280;57318;56.232;43.944;2022-09-09T03:30:37;99600.91;;;6.18;75.69
69980;BME280;57318;56.232;43.944;2022-09-09T03:33:03;99593.97;;;6.17;75.42
69980;BME280;57318;56.232;43.944;2022-09-09T03:35:29;99603.38;;;6.21;75.35
69980;BME280;57318;56.232;43.944;2022-09-09T03:37:55;99608.06;;;6.01;75.96
69980;BME280;57318;56.232;43.944;2022-09-09T03:40:21;99604.47;;;5.86;76.38
69980;BME280;57318;56.232;43.944;2022-09-09T03:42:47;99609.16;;;5.97;76.39
69980;BME280;57318;56.232;43.944;2022-09-09T03:45:14;99611.75;;;6.13;76.00
69980;BME280;57318;56.232;43.944;2022-09-09T03:47:39;99620.75;;;6.25;75.23
69980;BME280;57318;56.232;43.944;2022-09-09T03:50:07;99616.22;;;6.27;74.62
69980;BME280;57318;56.232;43.944;2022-09-09T03:52:37;99617.19;;;6.26;74.49
69980;BME280;57318;56.232;43.944;2022-09-09T03:55:04;99625.84;;;6.28;74.25
69980;BME280;57318;56.232;43.944;2022-09-09T03:57:31;99622.09;;;6.32;73.89
69980;BME280;57318;56.232;43.944;2022-09-09T03:59:57;99624.25;;;6.40;73.54
69980;BME280;57318;56.232;43.944;2022-09-09T04:02:23;99626.06;;;6.54;73.38
69980;BME280;57318;56.232;43.944;2022-09-09T04:04:49;99629.09;;;6.62;72.02
69980;BME280;57318;56.232;43.944;2022-09-09T04:07:14;99632.50;;;6.64;71.83
69980;BME280;57318;56.232;43.944;2022-09-09T04:09:41;99636.63;;;6.68;72.12
69980;BME280;57318;56.232;43.944;2022-09-09T04:12:06;99634.84;;;6.68;71.80
69980;BME280;57318;56.232;43.944;2022-09-09T04:14:32;99635.69;;;6.69;72.04
69980;BME280;57318;56.232;43.944;2022-09-09T04:16:58;99640.22;;;6.67;71.96
69980;BME280;57318;56.232;43.944;2022-09-09T04:19:25;99637.41;;;6.70;71.87
69980;BME280;57318;56.232;43.944;2022-09-09T04:21:51;99642.97;;;6.65;72.09
69980;BME280;57318;56.232;43.944;2022-09-09T04:24:17;99650.03;;;6.65;72.03
69980;BME280;57318;56.232;43.944;2022-09-09T04:26:43;99653.63;;;6.64;72.24
69980;BME280;57318;56.232;43.944;2022-09-09T04:29:09;99655.69;;;6.73;71.43
69980;BME280;57318;56.232;43.944;2022-09-09T04:31:35;99667.38;;;6.83;71.15
69980;BME280;57318;56.232;43.944;2022-09-09T04:34:03;99668.81;;;6.75;71.45
69980;BME280;57318;56.232;43.944;2022-09-09T04:36:31;99668.84;;;6.44;72.41
69980;BME280;57318;56.232;43.944;2022-09-09T04:38:57;99672.41;;;6.29;72.40
69980;BME280;57318;56.232;43.944;2022-09-09T04:41:23;99677.69;;;6.29;73.03
69980;BME280;57318;56.232;43.944;2022-09-09T04:43:49;99679.47;;;6.28;73.20
69980;BME280;57318;56.232;43.944;2022-09-09T04:46:15;99674.28;;;6.27;73.03
69980;BME280;57318;56.232;43.944;2022-09-09T04:48:44;99677.81;;;6.42;72.77
69980;BME280;57318;56.232;43.944;2022-09-09T04:51:12;99677.53;;;6.46;72.55
69980;BME280;57318;56.232;43.944;2022-09-09T04:53:39;99680.19;;;6.46;72.11
69980;BME280;57318;56.232;43.944;2022-09-09T04:56:12;99675.66;;;6.48;72.38
69980;BME280;57318;56.232;43.944;2022-09-09T04:58:39;99683.75;;;6.45;72.49
69980;BME280;57318;56.232;43.944;2022-09-09T05:01:09;99683.75;;;6.45;72.42
69980;BME280;57318;56.232;43.944;2022-09-09T05:03:36;99677.91;;;6.40;72.05
69980;BME280;57318;56.232;43.944;2022-09-09T05:06:06;99682.69;;;6.34;72.25
69980;BME280;57318;56.232;43.944;2022-09-09T05:08:34;99689.34;;;6.25;72.85
69980;BME280;57318;56.232;43.944;2022-09-09T05:11:00;99691.81;;;6.28;73.48
69980;BME280;57318;56.232;43.944;2022-09-09T05:13:28;99691.06;;;6.26;73.10
69980;BME280;57318;56.232;43.944;2022-09-09T05:15:54;99690.44;;;6.37;72.91
69980;BME280;57318;56.232;43.944;2022-09-09T05:18:21;99698.84;;;6.43;72.25
69980;BME280;57318;56.232;43.944;2022-09-09T05:20:48;99690.59;;;6.64;71.86
69980;BME280;57318;56.232;43.944;2022-09-09T05:23:14;99691.50;;;6.63;71.00
69980;BME280;57318;56.232;43.944;2022-09-09T05:25:39;99701.16;;;6.64;71.05
69980;BME280;57318;56.232;43.944;2022-09-09T05:28:09;99701.44;;;6.74;70.98
69980;BME280;57318;56.232;43.944;2022-09-09T05:30:35;99696.06;;;6.75;70.80
69980;BME280;57318;56.232;43.944;2022-09-09T05:33:00;99701.53;;;6.86;69.78
69980;BME280;57318;56.232;43.944;2022-09-09T05:35:26;99698.63;;;6.91;69.56
69980;BME280;57318;56.232;43.944;2022-09-09T05:37:53;99707.88;;;6.98;68.49
69980;BME280;57318;56.232;43.944;2022-09-09T05:40:22;99708.34;;;7.19;68.24
69980;BME280;57318;56.232;43.944;2022-09-09T05:42:47;99705.69;;;7.34;68.12
69980;BME280;57318;56.232;43.944;2022-09-09T05:45:13;99709.94;;;7.36;68.12
69980;BME280;57318;56.232;43.944;2022-09-09T05:47:39;99710.22;;;7.46;68.07
69980;BME280;57318;56.232;43.944;2022-09-09T05:50:05;99710.56;;;7.54;67.41
69980;BME280;57318;56.232;43.944;2022-09-09T05:52:31;99714.94;;;7.55;67.23
69980;BME280;57318;56.232;43.944;2022-09-09T05:54:57;99713.63;;;7.63;67.36
69980;BME280;57318;56.232;43.944;2022-09-09T05:57:24;99722.63;;;7.73;66.76
69980;BME280;57318;56.232;43.944;2022-09-09T05:59:50;99715.47;;;7.75;66.56
69980;BME280;57318;56.232;43.944;2022-09-09T06:02:16;99721.03;;;7.85;66.34
69980;BME280;57318;56.232;43.944;2022-09-09T06:04:41;99728.63;;;8.04;66.00
69980;BME280;57318;56.232;43.944;2022-09-09T06:07:07;99728.06;;;8.66;64.38
69980;BME280;57318;56.232;43.944;2022-09-09T06:09:33;99721.91;;;10.76;57.40
69980;BME280;57318;56.232;43.944;2022-09-09T06:11:59;99733.81;;;13.04;51.34
69980;BME280;57318;56.232;43.944;2022-09-09T06:14:25;99734.75;;;15.22;46.27
69980;BME280;57318;56.232;43.944;2022-09-09T06:16:52;99736.44;;;17.14;42.49
69980;BME280;57318;56.232;43.944;2022-09-09T06:19:18;99739.75;;;18.12;39.54
69980;BME280;57318;56.232;43.944;2022-09-09T06:21:44;99741.38;;;17.96;38.83
69980;BME280;57318;56.232;43.944;2022-09-09T06:24:10;99746.53;;;19.15;34.89
69980;BME280;57318;56.232;43.944;2022-09-09T06:26:39;99740.97;;;19.80;33.91
69980;BME280;57318;56.232;43.944;2022-09-09T06:29:08;99744.69;;;19.15;34.58
69980;BME280;57318;56.232;43.944;2022-09-09T06:31:35;99755.16;;;19.66;33.40
69980;BME280;57318;56.232;43.944;2022-09-09T06:34:05;99759.19;;;21.25;31.43
69980;BME280;57318;56.232;43.944;2022-09-09T06:36:33;99757.06;;;21.95;30.56
69980;BME280;57318;56.232;43.944;2022-09-09T06:38:59;99760.69;;;21.88;30.37
69980;BME280;57318;56.232;43.944;2022-09-09T06:41:27;99760.72;;;22.24;29.31
69980;BME280;57318;56.232;43.944;2022-09-09T06:43:53;99760.78;;;22.67;28.12
69980;BME280;57318;56.232;43.944;2022-09-09T06:46:26;99763.59;;;21.56;29.80
69980;BME280;57318;56.232;43.944;2022-09-09T06:48:56;99767.91;;;23.18;27.46
69980;BME280;57318;56.232;43.944;2022-09-09T06:51:25;99761.16;;;21.32;29.04
69980;BME280;57318;56.232;43.944;2022-09-09T06:53:53;99759.69;;;19.09;32.21
69980;BME280;57318;56.232;43.944;2022-09-09T06:56:31;99762.94;;;16.91;34.95
69980;BME280;57318;56.232;43.944;2022-09-09T06:58:59;99751.13;;;15.57;38.01
69980;BME280;57318;56.232;43.944;2022-09-09T07:01:34;99757.63;;;15.44;38.61
69980;BME280;57318;56.232;43.944;2022-09-09T07:04:01;99754.66;;;14.41;40.71
69980;BME280;57318;56.232;43.944;2022-09-09T07:06:34;99757.34;;;13.71;41.50
69980;BME280;57318;56.232;43.944;2022-09-09T07:09:02;99761.25;;;13.15;42.86
69980;BME280;57318;56.232;43.944;2022-09-09T07:11:32;99764.16;;;12.49;43.92
69980;BME280;57318;56.232;43.944;2022-09-09T07:13:59;99761.03;;;11.89;45.24
69980;BME280;57318;56.232;43.944;2022-09-09T07:16:24;99767.69;;;11.72;45.61
69980;BME280;57318;56.232;43.944;2022-09-09T07:18:51;99755.00;;;11.64;46.41
69980;BME280;57318;56.232;43.944;2022-09-09T07:21:18;99764.72;;;12.85;43.39
69980;BME280;57318;56.232;43.944;2022-09-09T07:23:46;99771.44;;;13.31;42.53
69980;BME280;57318;56.232;43.944;2022-09-09T07:26:21;99767.50;;;13.47;41.58
69980;BME280;57318;56.232;43.944;2022-09-09T07:28:48;99774.72;;;13.14;42.36
69980;BME280;57318;56.232;43.944;2022-09-09T07:31:16;99775.16;;;12.56;43.57
69980;BME280;57318;56.232;43.944;2022-09-09T07:33:44;99767.19;;;12.12;44.35
69980;BME280;57318;56.232;43.944;2022-09-09T07:36:13;99776.88;;;11.68;45.52
69980;BME280;57318;56.232;43.944;2022-09-09T07:38:45;99773.75;;;11.29;46.09
69980;BME280;57318;56.232;43.944;2022-09-09T07:41:15;99778.09;;;11.41;45.74
69980;BME280;57318;56.232;43.944;2022-09-09T07:43:42;99774.97;;;11.59;45.18
69980;BME280;57318;56.232;43.944;2022-09-09T07:46:10;99780.03;;;12.07;44.66
69980;BME280;57318;56.232;43.944;2022-09-09T07:48:38;99787.16;;;12.18;44.17
69980;BME280;57318;56.232;43.944;2022-09-09T07:51:09;99783.56;;;12.40;43.58
69980;BME280;57318;56.232;43.944;2022-09-09T07:53:37;99787.34;;;12.70;41.79
69980;BME280;57318;56.232;43.944;2022-09-09T07:56:04;99788.91;;;12.93;41.80
69980;BME280;57318;56.232;43.944;2022-09-09T07:58:30;99780.06;;;13.14;42.26
69980;BME280;57318;56.232;43.944;2022-09-09T08:00:55;99793.47;;;13.45;41.41
69980;BME280;57318;56.232;43.944;2022-09-09T08:03:21;99791.75;;;15.42;38.15
69980;BME280;57318;56.232;43.944;2022-09-09T08:05:47;99794.63;;;16.06;36.84
69980;BME280;57318;56.232;43.944;2022-09-09T08:08:13;99798.09;;;16.34;36.15
69980;BME280;57318;56.232;43.944;2022-09-09T08:10:39;99798.13;;;16.52;35.42
69980;BME280;57318;56.232;43.944;2022-09-09T08:13:04;99800.97;;;15.77;35.73
69980;BME280;57318;56.232;43.944;2022-09-09T08:15:31;99803.56;;;15.49;36.51
69980;BME280;57318;56.232;43.944;2022-09-09T08:17:57;99798.75;;;14.96;37.74
69980;BME280;57318;56.232;43.944;2022-09-09T08:20:23;99808.53;;;16.19;35.81
69980;BME280;57318;56.232;43.944;2022-09-09T08:22:48;99805.03;;;15.72;36.69
69980;BME280;57318;56.232;43.944;2022-09-09T08:25:15;99815.50;;;14.98;37.33
69980;BME280;57318;56.232;43.944;2022-09-09T08:27:41;99811.69;;;15.10;37.20
69980;BME280;57318;56.232;43.944;2022-09-09T08:30:07;99807.69;;;15.81;36.78
69980;BME280;57318;56.232;43.944;2022-09-09T08:32:32;99815.38;;;18.84;31.15
69980;BME280;57318;56.232;43.944;2022-09-09T08:35:00;99816.94;;;19.76;28.93
69980;BME280;57318;56.232;43.944;2022-09-09T08:37:26;99830.00;;;22.04;26.64
69980;BME280;57318;56.232;43.944;2022-09-09T08:39:51;99822.94;;;21.73;26.62
69980;BME280;57318;56.232;43.944;2022-09-09T08:58:06;99832.63;;;20.60;26.28
69980;BME280;57318;56.232;43.944;2022-09-09T09:06:40;99829.72;;;19.26;28.76
69980;BME280;57318;56.232;43.944;2022-09-09T09:11:48;99834.81;;;17.94;29.96
69980;BME280;57318;56.232;43.944;2022-09-09T09:14:20;99836.41;;;17.08;30.72
69980;BME280;57318;56.232;43.944;2022-09-09T09:16:58;99837.72;;;18.60;28.29
69980;BME280;57318;56.232;43.944;2022-09-09T09:19:24;99843.38;;;21.37;24.99
69980;BME280;57318;56.232;43.944;2022-09-09T09:24:23;99854.59;;;25.80;19.88
69980;BME280;57318;56.232;43.944;2022-09-09T09:26:52;99852.31;;;27.13;18.34
69980;BME280;57318;56.232;43.944;2022-09-09T09:29:19;99844.00;;;28.02;17.33
69980;BME280;57318;56.232;43.944;2022-09-09T09:31:52;99851.28;;;29.29;15.51
69980;BME280;57318;56.232;43.944;2022-09-09T09:34:21;99850.75;;;30.27;15.68
69980;BME280;57318;56.232;43.944;2022-09-09T09:39:30;99832.31;;;26.94;17.67
69980;BME280;57318;56.232;43.944;2022-09-09T09:42:09;99840.75;;;24.26;20.38
69980;BME280;57318;56.232;43.944;2022-09-09T09:44:36;99837.34;;;22.25;22.99
69980;BME280;57318;56.232;43.944;2022-09-09T09:47:10;99836.50;;;20.88;24.82
69980;BME280;57318;56.232;43.944;2022-09-09T09:49:39;99830.97;;;19.63;26.51
69980;BME280;57318;56.232;43.944;2022-09-09T09:52:06;99831.31;;;18.61;27.92
69980;BME280;57318;56.232;43.944;2022-09-09T09:54:39;99831.75;;;17.89;29.26
69980;BME280;57318;56.232;43.944;2022-09-09T09:57:16;99834.81;;;17.42;29.80
69980;BME280;57318;56.232;43.944;2022-09-09T09:59:43;99835.56;;;17.86;29.46
69980;BME280;57318;56.232;43.944;2022-09-09T10:05:14;99831.75;;;17.37;29.53
69980;BME280;57318;56.232;43.944;2022-09-09T10:07:41;99832.63;;;16.65;31.27
69980;BME280;57318;56.232;43.944;2022-09-09T10:10:13;99830.00;;;15.82;32.73
69980;BME280;57318;56.232;43.944;2022-09-09T10:18:22;99849.25;;;20.48;26.37
69980;BME280;57318;56.232;43.944;2022-09-09T10:35:19;99863.41;;;22.41;24.40
69980;BME280;57318;56.232;43.944;2022-09-09T10:54:07;99857.16;;;17.24;31.19
69980;BME280;57318;56.232;43.944;2022-09-09T10:56:38;99856.03;;;16.27;32.95
69980;BME280;57318;56.232;43.944;2022-09-09T10:59:12;99851.88;;;15.58;34.97
69980;BME280;57318;56.232;43.944;2022-09-09T11:01:49;99853.66;;;15.20;35.91
69980;BME280;57318;56.232;43.944;2022-09-09T11:04:35;99862.25;;;18.57;31.11
69980;BME280;57318;56.232;43.944;2022-09-09T11:07:07;99853.56;;;20.66;27.82
69980;BME280;57318;56.232;43.944;2022-09-09T11:09:42;99860.63;;;22.92;24.37
69980;BME280;57318;56.232;43.944;2022-09-09T11:12:15;99870.75;;;25.55;21.84
69980;BME280;57318;56.232;43.944;2022-09-09T11:14:51;99867.66;;;27.64;19.05
69980;BME280;57318;56.232;43.944;2022-09-09T11:17:42;99872.84;;;27.47;18.55
69980;BME280;57318;56.232;43.944;2022-09-09T11:20:13;99878.97;;;28.79;17.26
69980;BME280;57318;56.232;43.944;2022-09-09T11:25:19;99870.72;;;26.47;20.08
69980;BME280;57318;56.232;43.944;2022-09-09T11:41:36;99872.97;;;27.59;19.05
69980;BME280;57318;56.232;43.944;2022-09-09T11:44:21;99866.38;;;27.67;18.87
69980;BME280;57318;56.232;43.944;2022-09-09T11:46:51;99870.91;;;28.35;17.90
69980;BME280;57318;56.232;43.944;2022-09-09T11:49:42;99876.34;;;28.72;17.72
69980;BME280;57318;56.232;43.944;2022-09-09T11:52:21;99879.25;;;29.20;17.58
69980;BME280;57318;56.232;43.944;2022-09-09T11:54:49;99866.59;;;29.19;17.09
69980;BME280;57318;56.232;43.944;2022-09-09T11:57:25;99870.59;;;29.70;16.43
69980;BME280;57318;56.232;43.944;2022-09-09T11:59:53;99865.13;;;29.82;16.41
69980;BME280;57318;56.232;43.944;2022-09-09T12:02:25;99866.03;;;29.28;16.73
69980;BME280;57318;56.232;43.944;2022-09-09T12:05:10;99870.50;;;29.11;16.75
69980;BME280;57318;56.232;43.944;2022-09-09T12:07:38;99873.34;;;29.46;16.90
69980;BME280;57318;56.232;43.944;2022-09-09T12:12:35;99873.88;;;28.83;17.76
69980;BME280;57318;56.232;43.944;2022-09-09T12:20:20;99860.81;;;26.59;19.46
69980;BME280;57318;56.232;43.944;2022-09-09T12:23:07;99858.44;;;23.46;22.70
69980;BME280;57318;56.232;43.944;2022-09-09T12:29:01;99853.44;;;19.31;27.90
69980;BME280;57318;56.232;43.944;2022-09-09T12:34:39;99853.72;;;16.78;33.99
69980;BME280;57318;56.232;43.944;2022-09-09T12:37:20;99850.69;;;16.27;35.72
69980;BME280;57318;56.232;43.944;2022-09-09T12:42:47;99854.19;;;16.55;35.55
69980;BME280;57318;56.232;43.944;2022-09-09T12:45:21;99852.00;;;16.13;36.67
69980;BME280;57318;56.232;43.944;2022-09-09T12:48:04;99864.19;;;15.31;38.83
69980;BME280;57318;56.232;43.944;2022-09-09T12:50:34;99858.31;;;14.78;39.96
69980;BME280;57318;56.232;43.944;2022-09-09T12:53:07;99852.28;;;14.26;41.33
69980;BME280;57318;56.232;43.944;2022-09-09T12:55:37;99862.44;;;13.92;41.74
69980;BME280;57318;56.232;43.944;2022-09-09T12:58:05;99863.84;;;13.44;43.07
69980;BME280;57318;56.232;43.944;2022-09-09T13:00:33;99861.44;;;13.41;43.08
69980;BME280;57318;56.232;43.944;2022-09-09T13:03:13;99860.03;;;13.37;43.16
69980;BME280;57318;56.232;43.944;2022-09-09T13:05:41;99870.34;;;13.30;44.06
69980;BME280;57318;56.232;43.944;2022-09-09T13:08:15;99864.66;;;13.23;44.48
69980;BME280;57318;56.232;43.944;2022-09-09T13:13:33;99865.13;;;16.62;38.00
69980;BME280;57318;56.232;43.944;2022-09-09T13:16:02;99860.34;;;18.92;33.59
69980;BME280;57318;56.232;43.944;2022-09-09T13:18:33;99865.28;;;20.42;30.73
69980;BME280;57318;56.232;43.944;2022-09-09T13:20:59;99865.66;;;20.70;29.24
69980;BME280;57318;56.232;43.944;2022-09-09T13:23:28;99870.84;;;21.49;28.41
69980;BME280;57318;56.232;43.944;2022-09-09T13:26:20;99866.66;;;21.00;28.97
69980;BME280;57318;56.232;43.944;2022-09-09T13:28:49;99865.69;;;19.66;30.13
69980;BME280;57318;56.232;43.944;2022-09-09T13:31:22;99868.09;;;20.88;28.47
69980;BME280;57318;56.232;43.944;2022-09-09T13:33:49;99873.84;;;21.84;27.53
69980;BME280;57318;56.232;43.944;2022-09-09T13:36:14;99875.63;;;22.37;26.67
69980;BME280;57318;56.232;43.944;2022-09-09T13:38:53;99868.25;;;22.30;25.90
69980;BME280;57318;56.232;43.944;2022-09-09T13:41:21;99876.81;;;22.49;25.58
69980;BME280;57318;56.232;43.944;2022-09-09T13:43:49;99865.00;;;22.20;25.79
69980;BME280;57318;56.232;43.944;2022-09-09T13:46:24;99864.88;;;21.69;25.63
69980;BME280;57318;56.232;43.944;2022-09-09T13:48:57;99858.91;;;21.73;25.99
69980;BME280;57318;56.232;43.944;2022-09-09T13:51:34;99863.69;;;21.71;25.93
69980;BME280;57318;56.232;43.944;2022-09-09T13:54:00;99852.88;;;21.71;25.83
69980;BME280;57318;56.232;43.944;2022-09-09T13:56:26;99851.72;;;21.27;26.30
69980;BME280;57318;56.232;43.944;2022-09-09T13:58:52;99854.50;;;21.19;26.37
69980;BME280;57318;56.232;43.944;2022-09-09T14:01:18;99850.31;;;21.17;26.41
69980;BME280;57318;56.232;43.944;2022-09-09T14:03:44;99851.63;;;20.98;26.46
69980;BME280;57318;56.232;43.944;2022-09-09T14:06:10;99850.50;;;20.61;27.10
69980;BME280;57318;56.232;43.944;2022-09-09T14:08:36;99850.06;;;20.17;27.68
69980;BME280;57318;56.232;43.944;2022-09-09T14:11:05;99854.44;;;19.05;29.38
69980;BME280;57318;56.232;43.944;2022-09-09T14:13:34;99847.22;;;19.38;29.07
69980;BME280;57318;56.232;43.944;2022-09-09T14:16:00;99855.31;;;19.38;28.53
69980;BME280;57318;56.232;43.944;2022-09-09T14:18:25;99851.06;;;18.86;29.42
69980;BME280;57318;56.232;43.944;2022-09-09T14:20:51;99856.03;;;18.56;30.05
69980;BME280;57318;56.232;43.944;2022-09-09T14:23:17;99854.19;;;18.49;30.82
69980;BME280;57318;56.232;43.944;2022-09-09T14:25:43;99861.44;;;18.56;30.62
69980;BME280;57318;56.232;43.944;2022-09-09T14:28:10;99859.56;;;18.49;30.95
69980;BME280;57318;56.232;43.944;2022-09-09T14:30:38;99853.63;;;18.45;31.11
69980;BME280;57318;56.232;43.944;2022-09-09T14:33:12;99870.72;;;18.19;31.62
69980;BME280;57318;56.232;43.944;2022-09-09T14:35:38;99864.59;;;18.09;32.11
69980;BME280;57318;56.232;43.944;2022-09-09T14:38:04;99862.44;;;18.13;32.11
69980;BME280;57318;56.232;43.944;2022-09-09T14:40:30;99858.97;;;18.29;32.06
69980;BME280;57318;56.232;43.944;2022-09-09T14:42:57;99864.41;;;18.02;32.36
69980;BME280;57318;56.232;43.944;2022-09-09T14:45:24;99870.72;;;17.41;33.20
69980;BME280;57318;56.232;43.944;2022-09-09T14:47:51;99856.88;;;16.28;34.96
69980;BME280;57318;56.232;43.944;2022-09-09T14:50:17;99854.38;;;14.92;37.20
69980;BME280;57318;56.232;43.944;2022-09-09T14:52:43;99853.69;;;14.30;38.01
69980;BME280;57318;56.232;43.944;2022-09-09T14:55:09;99852.78;;;13.48;39.88
69980;BME280;57318;56.232;43.944;2022-09-09T14:57:37;99860.81;;;12.95;41.39
69980;BME280;57318;56.232;43.944;2022-09-09T15:00:04;99859.00;;;12.63;42.70
69980;BME280;57318;56.232;43.944;2022-09-09T15:02:30;99862.09;;;12.24;45.55
69980;BME280;57318;56.232;43.944;2022-09-09T15:04:56;99863.06;;;12.01;44.92
69980;BME280;57318;56.232;43.944;2022-09-09T15:07:25;99866.66;;;11.66;45.94
69980;BME280;57318;56.232;43.944;2022-09-09T15:09:52;99870.00;;;11.34;46.63
69980;BME280;57318;56.232;43.944;2022-09-09T15:12:18;99867.38;;;11.10;47.70
69980;BME280;57318;56.232;43.944;2022-09-09T15:14:46;99871.09;;;10.72;49.14
69980;BME280;57318;56.232;43.944;2022-09-09T15:17:13;99869.50;;;10.45;49.72
69980;BME280;57318;56.232;43.944;2022-09-09T15:19:39;99878.25;;;10.21;51.35
69980;BME280;57318;56.232;43.944;2022-09-09T15:22:05;99878.72;;;10.02;51.49
69980;BME280;57318;56.232;43.944;2022-09-09T15:24:34;99880.75;;;9.86;52.50
69980;BME280;57318;56.232;43.944;2022-09-09T15:27:01;99881.09;;;9.68;52.97
69980;BME280;57318;56.232;43.944;2022-09-09T15:29:27;99885.84;;;9.50;53.40